Time;durP1;ratioP1;P1;durP2;ratioP2;P2;SDS_P1;SDS_P2;PMS_P1;PMS_P2;Temp;Humidity;BMP_temperature;BMP_pressure;BME280_temperature;BME280_humidity;BME280_pressure;Samples;Min_cycle;Max_cycle;Signal;HPM_P1;HPM_P2
2022/08/28 00:00:27;;;;;;;;;;;19.90;99.90;;;;;;4195186;28;19909;-63
2022/08/28 00:02:27;;;;;;;;;;;19.90;99.90;;;;;;4196775;28;19950;-63
2022/08/28 00:04:29;;;;;;;;;;;19.90;99.90;;;;;;4195202;28;19904;-63
2022/08/28 00:06:29;;;;;;;;;;;19.90;99.90;;;;;;4196413;28;20414;-62
2022/08/28 00:08:30;;;;;;;;;;;19.90;99.90;;;;;;4194972;28;19954;-62
2022/08/28 00:10:32;;;;;;;;;;;19.90;99.90;;;;;;4196335;28;19908;-63
2022/08/28 00:12:34;;;;;;;;;;;19.90;99.90;;;;;;4194625;28;19904;-62
2022/08/28 00:14:35;;;;;;;;;;;19.90;99.90;;;;;;4196017;28;19946;-62
2022/08/28 00:16:36;;;;;;;;;;;19.80;99.90;;;;;;4195572;28;19958;-63
2022/08/28 00:18:38;;;;;;;;;;;19.90;99.90;;;;;;4193378;28;19908;-62
2022/08/28 00:20:39;;;;;;;;;;;19.90;99.90;;;;;;4195988;28;19908;-62
2022/08/28 00:22:40;;;;;;;;;;;19.80;99.90;;;;;;4194877;28;19958;-62
2022/08/28 00:24:41;;;;;;;;;;;19.70;99.90;;;;;;4195307;28;19908;-62
2022/08/28 00:29:03;;;;;;;;;;;19.60;99.90;;;;;;4196345;28;20323;-62
2022/08/28 00:31:04;;;;;;;;;;;19.60;99.90;;;;;;4194666;28;20302;-63
2022/08/28 00:33:12;;;;;;;;;;;19.40;99.90;;;;;;4196000;28;19912;-62
2022/08/28 00:35:16;;;;;;;;;;;19.30;99.90;;;;;;4194397;28;19916;-62
2022/08/28 00:37:17;;;;;;;;;;;19.10;99.90;;;;;;4196195;28;20353;-62
2022/08/28 00:39:18;;;;;;;;;;;19.00;99.90;;;;;;4194683;28;20512;-62
2022/08/28 00:41:19;;;;;;;;;;;18.90;99.90;;;;;;4196137;28;19953;-63
2022/08/28 00:43:23;;;;;;;;;;;18.80;99.90;;;;;;4194236;28;19915;-63
2022/08/28 00:45:25;;;;;;;;;;;18.80;99.90;;;;;;4196072;28;19939;-62
2022/08/28 00:47:27;;;;;;;;;;;18.80;99.90;;;;;;4194535;28;20917;-63
2022/08/28 00:49:29;;;;;;;;;;;18.80;99.90;;;;;;4195368;28;20348;-63
2022/08/28 00:53:50;;;;;;;;;;;18.70;99.90;;;;;;4195831;28;19962;-63
2022/08/28 00:55:51;;;;;;;;;;;18.70;99.90;;;;;;4194443;28;19920;-63
2022/08/28 00:57:54;;;;;;;;;;;18.70;99.90;;;;;;4195463;28;20257;-64
2022/08/28 00:59:55;;;;;;;;;;;18.80;99.90;;;;;;4194760;28;19905;-62
2022/08/28 01:01:57;;;;;;;;;;;18.80;99.90;;;;;;4194519;28;20417;-63
2022/08/28 01:03:58;;;;;;;;;;;18.80;99.90;;;;;;4195245;28;19908;-62
2022/08/28 01:05:59;;;;;;;;;;;18.80;99.90;;;;;;4194179;28;20293;-63
2022/08/28 01:08:00;;;;;;;;;;;18.70;99.90;;;;;;4195630;28;20388;-62
2022/08/28 01:10:02;;;;;;;;;;;18.60;99.90;;;;;;4193995;28;20253;-62
2022/08/28 01:12:07;;;;;;;;;;;18.40;99.90;;;;;;4195524;28;20245;-62
2022/08/28 01:14:07;;;;;;;;;;;18.30;99.90;;;;;;4193196;28;20315;-62
2022/08/28 01:16:09;;;;;;;;;;;18.20;99.90;;;;;;4195497;28;19923;-63
2022/08/28 01:18:12;;;;;;;;;;;18.20;99.90;;;;;;4193854;28;20199;-62
2022/08/28 01:20:15;;;;;;;;;;;18.10;99.90;;;;;;4195385;28;20358;-62
2022/08/28 01:22:28;;;;;;;;;;;18.10;99.90;;;;;;4193927;28;19950;-62
2022/08/28 01:24:29;;;;;;;;;;;18.20;99.90;;;;;;4195421;28;19966;-62
2022/08/28 01:26:30;;;;;;;;;;;18.10;99.90;;;;;;4193907;28;20344;-63
2022/08/28 01:28:32;;;;;;;;;;;18.00;99.90;;;;;;4194591;28;19916;-63
2022/08/28 01:30:34;;;;;;;;;;;18.00;99.90;;;;;;4193504;28;20356;-62
2022/08/28 01:32:37;;;;;;;;;;;17.90;99.90;;;;;;4194196;28;20307;-64
2022/08/28 01:34:39;;;;;;;;;;;17.90;99.90;;;;;;4193919;28;20322;-63
2022/08/28 01:36:40;;;;;;;;;;;17.90;99.90;;;;;;4193950;28;20338;-63
2022/08/28 01:38:43;;;;;;;;;;;17.90;99.90;;;;;;4194028;28;19941;-62
2022/08/28 01:40:46;;;;;;;;;;;18.00;99.90;;;;;;4194033;28;19957;-62
2022/08/28 01:42:47;;;;;;;;;;;18.00;99.90;;;;;;4194589;28;19904;-63
2022/08/28 01:44:49;;;;;;;;;;;18.00;99.90;;;;;;4193607;28;19973;-63
2022/08/28 01:46:54;;;;;;;;;;;18.00;99.90;;;;;;4195081;28;19908;-63
2022/08/28 01:48:54;;;;;;;;;;;17.90;99.90;;;;;;4193171;28;20307;-63
2022/08/28 01:50:56;;;;;;;;;;;17.80;99.90;;;;;;4194941;28;20010;-63
2022/08/28 01:52:56;;;;;;;;;;;17.70;99.90;;;;;;4193601;28;19904;-62
2022/08/28 01:54:57;;;;;;;;;;;17.60;99.90;;;;;;4195083;28;19912;-63
2022/08/28 01:56:58;;;;;;;;;;;17.70;99.90;;;;;;4193492;28;19963;-63
2022/08/28 01:59:01;;;;;;;;;;;17.70;99.90;;;;;;4194956;28;19904;-62
2022/08/28 02:01:02;;;;;;;;;;;17.70;99.90;;;;;;4193401;28;19904;-63
2022/08/28 02:03:03;;;;;;;;;;;17.70;99.90;;;;;;4194979;28;19974;-63
2022/08/28 02:05:04;;;;;;;;;;;17.60;99.90;;;;;;4193456;28;19954;-63
2022/08/28 02:07:05;;;;;;;;;;;17.60;99.90;;;;;;4194586;28;19937;-63
2022/08/28 02:09:07;;;;;;;;;;;17.60;99.90;;;;;;4193859;28;19901;-63
2022/08/28 02:11:08;;;;;;;;;;;17.60;99.90;;;;;;4193898;28;19905;-63
2022/08/28 02:13:10;;;;;;;;;;;17.60;99.90;;;;;;4193598;28;19911;-62
2022/08/28 02:15:11;;;;;;;;;;;17.60;99.90;;;;;;4193499;28;20357;-63
2022/08/28 02:17:12;;;;;;;;;;;17.60;99.90;;;;;;4194073;28;19916;-62
2022/08/28 02:19:13;;;;;;;;;;;17.60;99.90;;;;;;4192438;28;19932;-62
2022/08/28 02:21:14;;;;;;;;;;;17.60;99.90;;;;;;4194138;28;19915;-62
2022/08/28 02:23:16;;;;;;;;;;;17.70;99.90;;;;;;4193381;28;20356;-62
2022/08/28 02:25:17;;;;;;;;;;;17.60;99.90;;;;;;4194838;28;19908;-63
2022/08/28 02:27:18;;;;;;;;;;;17.60;99.90;;;;;;4193207;28;19958;-63
2022/08/28 02:29:19;;;;;;;;;;;17.50;99.90;;;;;;4194810;28;19905;-63
2022/08/28 02:31:20;;;;;;;;;;;17.50;99.90;;;;;;4193317;28;20327;-62
2022/08/28 02:33:21;;;;;;;;;;;17.50;99.90;;;;;;4194691;28;19990;-62
2022/08/28 02:35:22;;;;;;;;;;;17.60;99.90;;;;;;4192826;28;20426;-62
2022/08/28 02:37:23;;;;;;;;;;;17.60;99.90;;;;;;4193268;28;19913;-61
2022/08/28 02:39:24;;;;;;;;;;;17.70;99.90;;;;;;4193525;28;20413;-61
2022/08/28 02:41:25;;;;;;;;;;;17.60;99.90;;;;;;4193460;28;19954;-62
2022/08/28 02:43:26;;;;;;;;;;;17.60;99.90;;;;;;4197190;28;19904;-61
2022/08/28 02:45:27;;;;;;;;;;;17.60;99.90;;;;;;4196532;28;19908;-63
2022/08/28 02:47:28;;;;;;;;;;;17.50;99.90;;;;;;4197432;28;19950;-61
2022/08/28 02:49:30;;;;;;;;;;;17.50;99.90;;;;;;4196311;28;20355;-61
2022/08/28 02:51:32;;;;;;;;;;;17.50;99.90;;;;;;4197789;28;19958;-61
2022/08/28 02:53:33;;;;;;;;;;;17.50;99.90;;;;;;4178281;28;19908;-61
2022/08/28 02:55:34;;;;;;;;;;;17.50;99.90;;;;;;4197657;28;20316;-61
2022/08/28 02:57:35;;;;;;;;;;;17.50;99.90;;;;;;4196306;28;20368;-61
2022/08/28 02:59:36;;;;;;;;;;;17.50;99.90;;;;;;4197790;28;19954;-61
2022/08/28 03:01:37;;;;;;;;;;;17.40;99.90;;;;;;4195710;28;20364;-61
2022/08/28 03:03:39;;;;;;;;;;;17.30;99.90;;;;;;4197591;28;20402;-62
2022/08/28 03:05:40;;;;;;;;;;;17.30;99.90;;;;;;4195990;28;20001;-61
2022/08/28 03:07:41;;;;;;;;;;;17.30;99.90;;;;;;4196801;28;19918;-61
2022/08/28 03:09:43;;;;;;;;;;;17.30;99.90;;;;;;4195764;28;19905;-61
2022/08/28 03:11:43;;;;;;;;;;;17.30;99.90;;;;;;4196766;28;19904;-62
2022/08/28 03:13:44;;;;;;;;;;;17.30;99.90;;;;;;4196165;28;19927;-63
2022/08/28 03:15:46;;;;;;;;;;;17.30;99.90;;;;;;4196041;28;20253;-62
2022/08/28 03:17:47;;;;;;;;;;;17.30;99.90;;;;;;4196643;28;20357;-61
2022/08/28 03:19:49;;;;;;;;;;;17.30;99.90;;;;;;4195807;28;19905;-63
2022/08/28 03:21:49;;;;;;;;;;;17.20;99.90;;;;;;4196895;28;19908;-62
2022/08/28 03:23:50;;;;;;;;;;;17.20;99.90;;;;;;4195886;28;20253;-62
2022/08/28 03:25:59;;;;;;;;;;;17.10;99.90;;;;;;4197459;28;19904;-63
2022/08/28 03:28:00;;;;;;;;;;;17.10;99.90;;;;;;4195278;28;20311;-63
2022/08/28 03:30:01;;;;;;;;;;;17.10;99.90;;;;;;4197235;28;19908;-62
2022/08/28 03:32:02;;;;;;;;;;;17.00;99.90;;;;;;4195515;28;20213;-62
2022/08/28 03:34:03;;;;;;;;;;;16.90;99.90;;;;;;4197073;28;19924;-62
2022/08/28 03:36:04;;;;;;;;;;;16.90;99.90;;;;;;4195350;28;20349;-62
2022/08/28 03:38:05;;;;;;;;;;;16.80;99.90;;;;;;4197041;28;19909;-64
2022/08/28 03:40:07;;;;;;;;;;;16.90;99.90;;;;;;4195667;28;20376;-63
2022/08/28 03:42:08;;;;;;;;;;;16.90;99.90;;;;;;4196547;28;19938;-62
2022/08/28 03:44:09;;;;;;;;;;;16.90;99.90;;;;;;4196067;28;19905;-62
2022/08/28 03:46:14;;;;;;;;;;;16.90;99.90;;;;;;4195971;28;19954;-62
2022/08/28 03:48:15;;;;;;;;;;;17.00;99.90;;;;;;4196335;28;20356;-62
2022/08/28 03:50:16;;;;;;;;;;;16.90;99.90;;;;;;4195010;28;19954;-62
2022/08/28 03:52:17;;;;;;;;;;;17.00;99.90;;;;;;4196847;28;19909;-62
2022/08/28 03:54:18;;;;;;;;;;;17.00;99.90;;;;;;4194611;28;20327;-62
2022/08/28 03:56:21;;;;;;;;;;;17.10;99.90;;;;;;4196335;28;19950;-62
2022/08/28 03:58:22;;;;;;;;;;;17.10;99.90;;;;;;4195328;28;19912;-62
2022/08/28 04:00:23;;;;;;;;;;;17.10;99.90;;;;;;4196810;28;19938;-62
2022/08/28 04:02:24;;;;;;;;;;;17.10;99.90;;;;;;4195218;28;20006;-62
2022/08/28 04:04:25;;;;;;;;;;;17.00;99.90;;;;;;4196762;28;19905;-61
2022/08/28 04:06:26;;;;;;;;;;;17.10;99.90;;;;;;4194548;28;19909;-62
2022/08/28 04:08:28;;;;;;;;;;;17.10;99.90;;;;;;4195950;28;19957;-63
2022/08/28 04:10:29;;;;;;;;;;;17.10;99.90;;;;;;4195200;28;19908;-63
2022/08/28 04:12:30;;;;;;;;;;;17.20;99.90;;;;;;4196223;28;19958;-62
2022/08/28 04:14:31;;;;;;;;;;;17.30;99.90;;;;;;4195521;28;19905;-62
2022/08/28 04:16:32;;;;;;;;;;;17.60;99.90;;;;;;4194800;28;19916;-61
2022/08/28 04:18:34;;;;;;;;;;;18.00;99.90;;;;;;4195297;28;20272;-62
2022/08/28 04:20:35;;;;;;;;;;;18.30;99.90;;;;;;4194062;28;19912;-62
2022/08/28 04:22:36;;;;;;;;;;;18.60;99.90;;;;;;4196314;28;20318;-62
2022/08/28 04:24:37;;;;;;;;;;;18.80;99.90;;;;;;4194250;28;19904;-63
2022/08/28 04:26:38;;;;;;;;;;;19.20;99.90;;;;;;4196357;28;19916;-60
2022/08/28 04:28:39;;;;;;;;;;;19.60;99.90;;;;;;4194743;28;19943;-61
2022/08/28 04:30:40;;;;;;;;;;;19.80;99.90;;;;;;4196255;28;19982;-62
2022/08/28 04:32:41;;;;;;;;;;;20.10;99.90;;;;;;4194684;28;19912;-62
2022/08/28 04:34:42;;;;;;;;;;;20.30;99.90;;;;;;4196038;28;19962;-62
2022/08/28 04:36:43;;;;;;;;;;;20.60;99.90;;;;;;4194196;28;20342;-62
2022/08/28 04:38:44;;;;;;;;;;;20.90;99.90;;;;;;4195208;28;19908;-62
2022/08/28 04:40:45;;;;;;;;;;;21.00;99.90;;;;;;4194595;28;19916;-62
2022/08/28 04:42:46;;;;;;;;;;;21.10;99.90;;;;;;4195710;28;19935;-62
2022/08/28 04:44:47;;;;;;;;;;;21.30;99.90;;;;;;4194821;28;19904;-62
2022/08/28 04:46:48;;;;;;;;;;;21.40;99.90;;;;;;4195449;28;19915;-63
2022/08/28 04:48:49;;;;;;;;;;;21.70;99.90;;;;;;4194864;28;19904;-61
2022/08/28 04:50:50;;;;;;;;;;;21.80;99.90;;;;;;4194181;28;19912;-63
2022/08/28 04:52:50;;;;;;;;;;;22.00;99.90;;;;;;4195765;28;19918;-63
2022/08/28 04:54:51;;;;;;;;;;;22.30;99.90;;;;;;4194301;28;19904;-62
2022/08/28 04:56:52;;;;;;;;;;;22.50;99.90;;;;;;4195120;28;19923;-62
2022/08/28 04:58:53;;;;;;;;;;;22.70;99.90;;;;;;4193842;28;19905;-61
2022/08/28 05:00:54;;;;;;;;;;;22.90;99.90;;;;;;4195456;28;20348;-62
2022/08/28 05:02:55;;;;;;;;;;;23.00;99.90;;;;;;4194279;28;19904;-62
2022/08/28 05:04:56;;;;;;;;;;;22.90;99.90;;;;;;4195148;28;19935;-61
2022/08/28 05:06:57;;;;;;;;;;;22.80;99.90;;;;;;4193435;28;19978;-63
2022/08/28 05:08:59;;;;;;;;;;;22.70;99.90;;;;;;4195042;28;19911;-62
2022/08/28 05:11:18;;;;;;;;;;;22.40;99.90;;;;;;4193795;28;19904;-62
2022/08/28 05:13:19;;;;;;;;;;;22.40;99.90;;;;;;4195097;28;19954;-63
2022/08/28 05:15:20;;;;;;;;;;;22.50;99.90;;;;;;4175647;28;19909;-62
2022/08/28 05:17:21;;;;;;;;;;;22.60;99.90;;;;;;4194499;28;19978;-61
2022/08/28 05:19:23;;;;;;;;;;;22.40;99.90;;;;;;4193765;28;20147;-62
2022/08/28 05:21:24;;;;;;;;;;;22.80;99.90;;;;;;4194515;28;20306;-63
2022/08/28 05:23:25;;;;;;;;;;;22.90;99.90;;;;;;4193783;28;19937;-62
2022/08/28 05:25:26;;;;;;;;;;;22.70;99.90;;;;;;4193961;28;19905;-62
2022/08/28 05:27:27;;;;;;;;;;;22.90;99.90;;;;;;4195113;28;19905;-61
2022/08/28 05:29:28;;;;;;;;;;;23.30;99.90;;;;;;4193786;28;19949;-62
2022/08/28 05:31:30;;;;;;;;;;;23.60;99.90;;;;;;4194587;28;19920;-62
2022/08/28 05:33:31;;;;;;;;;;;23.40;99.90;;;;;;4193536;28;19939;-62
2022/08/28 05:35:33;;;;;;;;;;;23.50;99.90;;;;;;4194891;28;20872;-62
2022/08/28 05:37:34;;;;;;;;;;;24.00;99.90;;;;;;4193488;28;19916;-61
2022/08/28 05:39:35;;;;;;;;;;;24.30;99.90;;;;;;4195267;28;19961;-61
2022/08/28 05:41:37;;;;;;;;;;;24.50;99.90;;;;;;4192987;28;19908;-61
2022/08/28 05:43:37;;;;;;;;;;;24.50;99.90;;;;;;4194530;28;20352;-61
2022/08/28 05:45:39;;;;;;;;;;;24.60;99.90;;;;;;4192985;28;19961;-61
2022/08/28 05:47:40;;;;;;;;;;;24.80;99.70;;;;;;4194322;28;20331;-62
2022/08/28 05:49:41;;;;;;;;;;;24.90;99.30;;;;;;4193456;28;19942;-62
2022/08/28 05:51:42;;;;;;;;;;;25.00;99.00;;;;;;4194104;28;19948;-62
2022/08/28 05:53:43;;;;;;;;;;;25.00;99.10;;;;;;4193651;28;19900;-61
2022/08/28 05:55:44;;;;;;;;;;;24.70;99.10;;;;;;4193151;28;19908;-63
2022/08/28 05:57:45;;;;;;;;;;;24.50;99.40;;;;;;4194113;28;20350;-62
2022/08/28 05:59:46;;;;;;;;;;;24.80;99.50;;;;;;4192764;28;19904;-61
2022/08/28 06:01:48;;;;;;;;;;;25.10;98.70;;;;;;4176513;28;19915;-62
2022/08/28 06:03:53;;;;;;;;;;;25.20;98.50;;;;;;4193264;28;19908;-61
2022/08/28 06:05:54;;;;;;;;;;;25.30;98.20;;;;;;4194720;28;19976;-63
2022/08/28 06:07:56;;;;;;;;;;;25.70;98.00;;;;;;4193233;28;20318;-62
2022/08/28 06:09:57;;;;;;;;;;;26.50;97.10;;;;;;4194398;28;19934;-63
2022/08/28 06:11:59;;;;;;;;;;;26.70;96.40;;;;;;4193159;28;19911;-61
2022/08/28 06:14:03;;;;;;;;;;;27.10;95.60;;;;;;4194069;28;19908;-63
2022/08/28 06:16:04;;;;;;;;;;;26.80;95.50;;;;;;4192334;28;19985;-63
2022/08/28 06:18:05;;;;;;;;;;;26.40;96.20;;;;;;4194001;28;19962;-62
2022/08/28 06:20:06;;;;;;;;;;;26.30;96.00;;;;;;4192971;28;19908;-62
2022/08/28 06:22:10;;;;;;;;;;;26.10;96.10;;;;;;4193742;28;19974;-62
2022/08/28 06:24:12;;;;;;;;;;;26.40;96.00;;;;;;4193226;28;19950;-61
2022/08/28 06:26:13;;;;;;;;;;;26.90;95.50;;;;;;4193729;28;20437;-63
2022/08/28 06:28:19;;;;;;;;;;;27.10;95.00;;;;;;4194039;28;19939;-62
2022/08/28 06:30:20;;;;;;;;;;;27.20;94.90;;;;;;4192940;28;19912;-62
2022/08/28 06:32:21;;;;;;;;;;;27.50;94.70;;;;;;4193726;28;19904;-62
2022/08/28 06:34:22;;;;;;;;;;;28.00;93.90;;;;;;4192868;28;20011;-62
2022/08/28 06:36:24;;;;;;;;;;;28.20;93.50;;;;;;4194362;28;19951;-62
2022/08/28 06:38:26;;;;;;;;;;;28.80;92.70;;;;;;4192831;28;19916;-62
2022/08/28 06:40:27;;;;;;;;;;;29.00;92.10;;;;;;4194476;28;19908;-62
2022/08/28 06:42:30;;;;;;;;;;;29.10;91.70;;;;;;4174705;28;20436;-62
2022/08/28 06:44:31;;;;;;;;;;;29.40;91.80;;;;;;4194518;28;20414;-63
2022/08/28 06:46:33;;;;;;;;;;;29.00;91.90;;;;;;4192892;28;19908;-63
2022/08/28 06:48:34;;;;;;;;;;;28.90;91.40;;;;;;4194099;28;19958;-63
2022/08/28 06:50:39;;;;;;;;;;;28.70;91.50;;;;;;4192003;28;19915;-63
2022/08/28 06:52:39;;;;;;;;;;;29.00;91.30;;;;;;4194714;28;19954;-62
2022/08/28 06:54:40;;;;;;;;;;;29.20;91.40;;;;;;4192769;28;19908;-63
2022/08/28 06:56:41;;;;;;;;;;;29.40;91.10;;;;;;4175422;28;19905;-63
2022/08/28 06:58:43;;;;;;;;;;;29.30;90.90;;;;;;4192400;28;20410;-62
2022/08/28 07:00:44;;;;;;;;;;;29.30;90.80;;;;;;4193408;28;19904;-63
2022/08/28 07:02:45;;;;;;;;;;;29.50;90.30;;;;;;4193604;28;19908;-62
2022/08/28 07:04:49;;;;;;;;;;;29.40;91.00;;;;;;4191850;28;19936;-63
2022/08/28 07:06:51;;;;;;;;;;;29.00;90.80;;;;;;4193599;28;20386;-62
2022/08/28 07:08:52;;;;;;;;;;;28.60;90.50;;;;;;4192636;28;19913;-63
2022/08/28 07:10:53;;;;;;;;;;;28.20;91.20;;;;;;4193811;28;19909;-63
2022/08/28 07:12:54;;;;;;;;;;;28.00;91.80;;;;;;4192538;28;19904;-63
2022/08/28 07:14:55;;;;;;;;;;;27.70;91.50;;;;;;4194218;28;20348;-62
2022/08/28 07:16:56;;;;;;;;;;;27.40;91.60;;;;;;4192594;28;19908;-63
2022/08/28 07:18:57;;;;;;;;;;;27.20;92.00;;;;;;4194179;28;20367;-62
2022/08/28 07:21:02;;;;;;;;;;;27.10;91.90;;;;;;4192344;28;20316;-61
2022/08/28 07:23:03;;;;;;;;;;;26.90;91.50;;;;;;4193863;28;19912;-62
2022/08/28 07:25:04;;;;;;;;;;;26.60;92.10;;;;;;4191706;28;19912;-62
2022/08/28 07:27:05;;;;;;;;;;;26.30;92.30;;;;;;4193429;28;19912;-64
2022/08/28 07:29:08;;;;;;;;;;;26.40;92.60;;;;;;4195602;28;19940;-63
2022/08/28 07:31:12;;;;;;;;;;;26.70;92.40;;;;;;4196291;28;19908;-62
2022/08/28 07:33:13;;;;;;;;;;;26.40;92.50;;;;;;4195882;28;20312;-63
2022/08/28 07:35:14;;;;;;;;;;;26.40;92.60;;;;;;4194843;28;19930;-63
2022/08/28 07:37:16;;;;;;;;;;;26.50;92.40;;;;;;4196320;28;19974;-62
2022/08/28 07:39:17;;;;;;;;;;;26.60;92.20;;;;;;4195352;28;20319;-63
2022/08/28 07:41:20;;;;;;;;;;;27.00;92.40;;;;;;4196649;28;19980;-62
2022/08/28 07:45:41;;;;;;;;;;;27.50;91.50;;;;;;4196711;28;19950;-62
2022/08/28 07:47:42;;;;;;;;;;;27.40;91.40;;;;;;4194824;28;20356;-63
2022/08/28 07:49:44;;;;;;;;;;;27.40;91.30;;;;;;4196648;28;19919;-63
2022/08/28 07:51:45;;;;;;;;;;;27.40;91.20;;;;;;4195130;28;19908;-61
2022/08/28 07:53:46;;;;;;;;;;;27.50;91.00;;;;;;4178356;28;19912;-62
2022/08/28 07:55:49;;;;;;;;;;;27.60;90.70;;;;;;4195085;28;19943;-62
2022/08/28 07:57:49;;;;;;;;;;;27.60;90.80;;;;;;4196466;28;19912;-62
2022/08/28 07:59:51;;;;;;;;;;;27.40;90.60;;;;;;4194538;28;19965;-62
2022/08/28 08:01:52;;;;;;;;;;;27.10;90.80;;;;;;4196188;28;19908;-63
2022/08/28 08:03:53;;;;;;;;;;;27.20;91.10;;;;;;4194633;28;19931;-62
2022/08/28 08:05:55;;;;;;;;;;;27.20;90.60;;;;;;4195466;28;20394;-63
2022/08/28 08:07:56;;;;;;;;;;;27.30;90.50;;;;;;4195178;28;19904;-62
2022/08/28 08:09:56;;;;;;;;;;;27.50;90.30;;;;;;4194889;28;19957;-62
2022/08/28 08:11:58;;;;;;;;;;;27.70;90.60;;;;;;4195079;28;19908;-61
2022/08/28 08:14:03;;;;;;;;;;;27.80;90.10;;;;;;4194932;28;19905;-61
2022/08/28 08:16:08;;;;;;;;;;;27.90;89.00;;;;;;4195983;28;20318;-61
2022/08/28 08:18:09;;;;;;;;;;;28.10;89.70;;;;;;4193772;28;20323;-61
2022/08/28 08:20:10;;;;;;;;;;;28.30;90.00;;;;;;4196080;28;19909;-62
2022/08/28 08:22:11;;;;;;;;;;;28.30;89.10;;;;;;4194568;28;19919;-62
2022/08/28 08:24:19;;;;;;;;;;;28.20;89.90;;;;;;4195307;28;19908;-62
2022/08/28 08:26:22;;;;;;;;;;;28.10;89.70;;;;;;4193779;28;19977;-62
2022/08/28 08:28:23;;;;;;;;;;;28.20;89.20;;;;;;4195354;28;19908;-62
2022/08/28 08:30:23;;;;;;;;;;;28.10;89.20;;;;;;4194450;28;19905;-63
2022/08/28 08:32:24;;;;;;;;;;;28.00;89.10;;;;;;4195443;28;19958;-64
2022/08/28 08:34:25;;;;;;;;;;;28.20;88.80;;;;;;4194247;28;20010;-62
2022/08/28 08:36:27;;;;;;;;;;;28.40;89.20;;;;;;4196008;28;20494;-63
2022/08/28 08:38:29;;;;;;;;;;;28.40;88.40;;;;;;4194259;28;19962;-63
2022/08/28 08:40:30;;;;;;;;;;;28.30;88.00;;;;;;4194401;28;19916;-63
2022/08/28 08:42:32;;;;;;;;;;;28.20;88.20;;;;;;4194009;28;19958;-63
2022/08/28 08:44:41;;;;;;;;;;;28.30;88.00;;;;;;4194708;28;19912;-62
2022/08/28 08:46:47;;;;;;;;;;;28.40;87.60;;;;;;4194826;28;19908;-62
2022/08/28 08:48:49;;;;;;;;;;;28.60;86.50;;;;;;4194721;28;19908;-63
2022/08/28 08:50:51;;;;;;;;;;;28.60;85.30;;;;;;4194472;28;20335;-63
2022/08/28 08:53:18;;;;;;;;;;;28.60;86.20;;;;;;4194473;28;19969;-62
2022/08/28 08:55:26;;;;;;;;;;;28.70;86.00;;;;;;4191232;28;19904;-62
2022/08/28 08:57:27;;;;;;;;;;;28.80;85.00;;;;;;4194448;28;19973;-63
2022/08/28 08:59:30;;;;;;;;;;;29.10;85.00;;;;;;4194939;28;19912;-63
2022/08/28 09:01:35;;;;;;;;;;;29.10;82.30;;;;;;4194157;28;19912;-63
2022/08/28 09:03:59;;;;;;;;;;;29.20;82.50;;;;;;4195184;28;19904;-63
2022/08/28 09:06:02;;;;;;;;;;;29.50;82.70;;;;;;4184912;28;19970;-63
2022/08/28 09:08:05;;;;;;;;;;;29.30;81.90;;;;;;4194569;28;19908;-63
2022/08/28 09:10:07;;;;;;;;;;;29.30;82.40;;;;;;4193890;28;19904;-61
2022/08/28 09:12:11;;;;;;;;;;;29.30;81.00;;;;;;4195087;28;19912;-62
2022/08/28 09:14:19;;;;;;;;;;;29.40;79.90;;;;;;4193694;28;19912;-62
2022/08/28 09:16:28;;;;;;;;;;;29.50;79.50;;;;;;4194505;28;19904;-64
2022/08/28 09:18:33;;;;;;;;;;;29.70;79.40;;;;;;4193622;28;19916;-63
2022/08/28 09:20:33;;;;;;;;;;;29.80;78.60;;;;;;4194787;28;19908;-62
2022/08/28 09:22:36;;;;;;;;;;;29.80;76.90;;;;;;4193587;28;19953;-63
2022/08/28 09:24:38;;;;;;;;;;;29.80;77.00;;;;;;4194562;28;19908;-63
2022/08/28 09:26:39;;;;;;;;;;;29.80;76.70;;;;;;4192652;28;20275;-63
2022/08/28 09:28:40;;;;;;;;;;;29.90;76.20;;;;;;4194907;28;19908;-63
2022/08/28 09:30:42;;;;;;;;;;;30.10;76.40;;;;;;4193534;28;19908;-62
2022/08/28 09:32:56;;;;;;;;;;;30.50;75.10;;;;;;4194803;28;20283;-61
2022/08/28 09:35:06;;;;;;;;;;;30.60;75.10;;;;;;4192548;28;19916;-61
2022/08/28 09:37:07;;;;;;;;;;;30.70;76.50;;;;;;4194422;28;19912;-62
2022/08/28 09:39:11;;;;;;;;;;;30.70;73.80;;;;;;4192269;28;19913;-62
2022/08/28 09:43:32;;;;;;;;;;;30.60;73.40;;;;;;4193039;28;19970;-62
2022/08/28 09:45:33;;;;;;;;;;;30.70;74.70;;;;;;4194634;28;20057;-63
2022/08/28 09:47:34;;;;;;;;;;;30.80;74.70;;;;;;4192823;28;20053;-61
2022/08/28 09:49:35;;;;;;;;;;;30.90;73.30;;;;;;4194126;28;19908;-62
2022/08/28 09:51:38;;;;;;;;;;;31.10;73.10;;;;;;4193098;28;19962;-62
2022/08/28 09:53:50;;;;;;;;;;;31.20;72.20;;;;;;4193232;28;19908;-62
2022/08/28 09:56:01;;;;;;;;;;;31.10;72.10;;;;;;4192929;28;19957;-62
2022/08/28 09:58:02;;;;;;;;;;;31.20;72.90;;;;;;4193654;28;19916;-62
2022/08/28 10:00:03;;;;;;;;;;;31.20;71.30;;;;;;4193426;28;19908;-62
2022/08/28 10:02:05;;;;;;;;;;;31.10;71.10;;;;;;4192757;28;19950;-63
2022/08/28 10:04:21;;;;;;;;;;;31.00;71.10;;;;;;4194118;28;19965;-62
2022/08/28 10:06:30;;;;;;;;;;;30.90;71.40;;;;;;4193251;28;19905;-62
2022/08/28 10:08:38;;;;;;;;;;;30.70;70.80;;;;;;4194075;28;19920;-62
2022/08/28 10:10:42;;;;;;;;;;;30.60;71.50;;;;;;4193343;28;19904;-62
2022/08/28 10:13:02;;;;;;;;;;;30.60;70.40;;;;;;4193954;28;19909;-62
2022/08/28 10:15:03;;;;;;;;;;;30.70;69.90;;;;;;4193310;28;19908;-63
2022/08/28 10:17:09;;;;;;;;;;;30.70;69.90;;;;;;4194145;28;19920;-61
2022/08/28 10:19:22;;;;;;;;;;;30.80;71.30;;;;;;4192841;28;19966;-62
2022/08/28 10:21:27;;;;;;;;;;;30.90;69.00;;;;;;4194003;28;19908;-62
2022/08/28 10:23:40;;;;;;;;;;;30.90;68.70;;;;;;4192242;28;19912;-62
2022/08/28 10:25:56;;;;;;;;;;;30.90;69.30;;;;;;4194124;28;20356;-63
2022/08/28 10:28:16;;;;;;;;;;;30.90;69.10;;;;;;4193102;28;20348;-63
2022/08/28 10:30:21;;;;;;;;;;;30.90;70.10;;;;;;4192960;28;19934;-62
2022/08/28 10:32:34;;;;;;;;;;;31.00;69.20;;;;;;4193211;28;19912;-62
2022/08/28 10:34:54;;;;;;;;;;;31.00;68.80;;;;;;4193414;28;20414;-62
2022/08/28 10:37:03;;;;;;;;;;;31.10;69.70;;;;;;4193639;28;20298;-63
2022/08/28 10:39:10;;;;;;;;;;;31.30;69.60;;;;;;4193352;28;19983;-63
2022/08/28 10:41:17;;;;;;;;;;;31.40;68.20;;;;;;4192918;28;19905;-63
2022/08/28 10:43:36;;;;;;;;;;;31.20;68.10;;;;;;4193613;28;20017;-63
2022/08/28 10:45:37;;;;;;;;;;;31.10;68.50;;;;;;4193494;28;19912;-62
2022/08/28 10:47:40;;;;;;;;;;;31.10;67.90;;;;;;4193659;28;19904;-62
2022/08/28 10:49:44;;;;;;;;;;;31.00;68.20;;;;;;4193320;28;19904;-64
2022/08/28 10:51:46;;;;;;;;;;;31.00;69.70;;;;;;4194018;28;20347;-62
2022/08/28 10:54:10;;;;;;;;;;;31.00;68.70;;;;;;4192817;28;19904;-62
2022/08/28 10:56:16;;;;;;;;;;;31.00;69.20;;;;;;4193391;28;19909;-62
2022/08/28 10:58:17;;;;;;;;;;;30.90;68.70;;;;;;4174937;28;19913;-64
2022/08/28 11:00:19;;;;;;;;;;;30.90;68.70;;;;;;4193586;28;19962;-62
2022/08/28 11:02:22;;;;;;;;;;;30.80;68.60;;;;;;4192386;28;19908;-63
2022/08/28 11:04:24;;;;;;;;;;;30.90;69.40;;;;;;4197314;28;19912;-62
2022/08/28 11:06:31;;;;;;;;;;;30.90;68.50;;;;;;4195941;28;19974;-62
2022/08/28 11:08:33;;;;;;;;;;;31.00;69.30;;;;;;4197234;28;19938;-63
2022/08/28 11:10:34;;;;;;;;;;;31.00;68.40;;;;;;4195362;28;19908;-62
2022/08/28 11:12:36;;;;;;;;;;;31.10;68.50;;;;;;4197206;28;19998;-62
2022/08/28 11:14:41;;;;;;;;;;;31.30;69.10;;;;;;4195558;28;20356;-62
2022/08/28 11:16:45;;;;;;;;;;;31.30;68.20;;;;;;4197112;28;19974;-63
2022/08/28 11:19:05;;;;;;;;;;;31.30;68.60;;;;;;4194827;28;19958;-63
2022/08/28 11:21:10;;;;;;;;;;;31.30;68.40;;;;;;4196253;28;19905;-62
2022/08/28 11:23:14;;;;;;;;;;;31.30;68.60;;;;;;4195416;28;19970;-63
2022/08/28 11:25:18;;;;;;;;;;;31.10;68.40;;;;;;4196239;28;20349;-63
2022/08/28 11:27:29;;;;;;;;;;;31.20;69.20;;;;;;4195604;28;20275;-63
2022/08/28 11:29:49;;;;;;;;;;;31.10;69.30;;;;;;4196987;28;19958;-62
2022/08/28 11:32:10;;;;;;;;;;;30.90;69.20;;;;;;4195418;28;19908;-63
2022/08/28 11:34:31;;;;;;;;;;;30.90;69.60;;;;;;4196082;28;19917;-62
2022/08/28 11:36:32;;;;;;;;;;;31.00;69.80;;;;;;4195023;28;19905;-63
2022/08/28 11:38:42;;;;;;;;;;;31.00;70.00;;;;;;4196651;28;19938;-63
2022/08/28 11:40:43;;;;;;;;;;;31.10;70.20;;;;;;4195324;28;19950;-62
2022/08/28 11:42:47;;;;;;;;;;;31.10;70.50;;;;;;4196138;28;19904;-63
2022/08/28 11:44:50;;;;;;;;;;;31.10;70.70;;;;;;4194723;28;20364;-63
2022/08/28 11:46:52;;;;;;;;;;;31.30;70.70;;;;;;4195928;28;20414;-64
2022/08/28 11:48:54;;;;;;;;;;;31.30;69.80;;;;;;4194689;28;19908;-62
2022/08/28 11:51:18;;;;;;;;;;;31.30;69.70;;;;;;4195894;28;20364;-63
2022/08/28 11:53:24;;;;;;;;;;;31.40;70.00;;;;;;4186395;28;20310;-63
2022/08/28 11:55:30;;;;;;;;;;;31.40;68.80;;;;;;4195879;28;20348;-63
2022/08/28 11:57:50;;;;;;;;;;;31.50;68.50;;;;;;4194600;28;19979;-63
2022/08/28 12:00:17;;;;;;;;;;;31.60;68.50;;;;;;4196677;28;19962;-62
2022/08/28 12:02:36;;;;;;;;;;;31.60;68.00;;;;;;4171015;28;20017;-62
2022/08/28 12:04:41;;;;;;;;;;;31.50;68.40;;;;;;4195915;28;19905;-62